GEC weather

Lefkoniko Airport
Ge├žitkale, Famagusta District, Cyprus

Public forecast

Using degrees Celsius for public forecast. Weather courtesy of forecast.io.

Closest aviation weather report (METAR) to Lefkoniko Airport

Closest report is Ercan International Airport, 12.2 nm (22.6 km) WSW. Retrieved 2019/12/09 18:20 UTC (0 seconds ago):

LCEN 091820Z 28006KT 9999 FEW025 SCT070 10/09 Q1014 NOSIG

Closest aviation forecast (TAF) to Lefkoniko Airport

Closest forecast is Ercan International Airport, 12.2 nm (22.6 km) WSW. Retrieved 2019/12/09 18:03 UTC (0 seconds ago):

TAF TAF LCEN 091640Z 0918/1018 29012KT 9999 SCT025 BKN100 PROB30 TEMPO 0903/0907 5000 SHRA BKN020 BKN080